createdAt,value
2023-02-08T00:01:19.137Z,33.13
2023-02-08T00:03:47.580Z,33.87
2023-02-08T00:06:17.565Z,38.73
2023-02-08T00:08:46.333Z,35.63
2023-02-08T00:11:14.614Z,36.27
2023-02-08T00:13:43.025Z,30.47
2023-02-08T00:16:12.422Z,36.30
2023-02-08T00:18:40.723Z,33.83
2023-02-08T00:21:11.070Z,35.73
2023-02-08T00:23:40.754Z,35.07
2023-02-08T00:26:09.566Z,36.43
2023-02-08T00:28:38.267Z,36.07
2023-02-08T00:31:07.071Z,35.33
2023-02-08T00:33:36.021Z,36.10
2023-02-08T00:36:06.401Z,36.50
2023-02-08T00:38:34.903Z,34.97
2023-02-08T00:41:04.882Z,36.13
2023-02-08T00:43:33.312Z,37.00
2023-02-08T00:46:01.400Z,40.10
2023-02-08T00:48:30.002Z,45.53
2023-02-08T00:51:00.041Z,36.93
2023-02-08T00:53:28.193Z,33.67
2023-02-08T00:55:57.574Z,33.97
2023-02-08T00:58:28.200Z,37.10
2023-02-08T01:00:56.620Z,36.73
2023-02-08T01:03:25.460Z,40.83
2023-02-08T01:05:53.924Z,36.03
2023-02-08T01:08:22.391Z,34.40
2023-02-08T01:10:50.487Z,31.20
2023-02-08T01:13:18.769Z,40.83
2023-02-08T01:15:48.283Z,34.93
2023-02-08T01:18:16.844Z,35.77
2023-02-08T01:20:44.919Z,35.97
2023-02-08T01:23:12.977Z,37.03
2023-02-08T01:25:41.920Z,32.70
2023-02-08T01:28:10.207Z,36.20
2023-02-08T01:30:39.288Z,38.17
2023-02-08T01:33:08.990Z,38.37
2023-02-08T01:35:37.100Z,39.10
2023-02-08T01:38:05.903Z,39.33
2023-02-08T01:40:33.965Z,42.03
2023-02-08T01:43:02.038Z,35.93
2023-02-08T01:45:32.011Z,41.20
2023-02-08T01:48:05.951Z,38.43
2023-02-08T01:50:43.000Z,37.73
2023-02-08T01:53:11.939Z,38.67
2023-02-08T01:55:44.308Z,41.90
2023-02-08T01:58:15.651Z,39.23
2023-02-08T02:00:44.015Z,37.20
2023-02-08T02:03:14.589Z,41.03
2023-02-08T02:05:46.719Z,37.90
2023-02-08T02:08:15.108Z,35.07
2023-02-08T02:10:44.916Z,42.80
2023-02-08T02:13:15.563Z,45.40
2023-02-08T02:15:46.130Z,36.53
2023-02-08T02:18:19.158Z,41.87
2023-02-08T02:21:04.343Z,37.73
2023-02-08T02:24:06.828Z,40.33
2023-02-08T02:27:13.903Z,39.87
2023-02-08T02:30:24.761Z,38.77
2023-02-08T02:33:06.903Z,38.43
2023-02-08T02:35:45.197Z,35.30
2023-02-08T02:38:21.857Z,33.90
2023-02-08T02:41:08.108Z,33.63
2023-02-08T02:43:46.487Z,39.43
2023-02-08T02:46:26.043Z,39.20
2023-02-08T02:49:03.462Z,34.90
2023-02-08T02:51:41.253Z,40.53
2023-02-08T02:54:15.720Z,34.30
2023-02-08T02:56:46.885Z,36.33
2023-02-08T02:59:17.099Z,34.00
2023-02-08T03:01:47.536Z,37.93
2023-02-08T03:04:19.191Z,32.93
2023-02-08T03:07:01.766Z,33.67
2023-02-08T03:09:46.849Z,38.33
2023-02-08T03:12:29.283Z,32.57
2023-02-08T03:15:06.427Z,36.27
2023-02-08T03:17:51.349Z,32.17
2023-02-08T03:20:26.159Z,38.70
2023-02-08T03:23:02.293Z,36.93
2023-02-08T03:25:37.910Z,42.43
2023-02-08T03:28:12.974Z,33.53
2023-02-08T03:30:51.392Z,38.53
2023-02-08T03:33:26.863Z,38.83
2023-02-08T03:36:03.296Z,33.50
2023-02-08T03:38:35.819Z,33.50
2023-02-08T03:41:07.751Z,39.73
2023-02-08T03:43:41.336Z,36.43
2023-02-08T03:46:13.122Z,36.40
2023-02-08T03:48:47.545Z,35.00
2023-02-08T03:51:17.960Z,34.10
2023-02-08T03:53:48.172Z,37.70
2023-02-08T03:56:21.998Z,36.70
2023-02-08T03:58:57.626Z,35.37
2023-02-08T04:01:31.599Z,32.47
2023-02-08T04:04:01.129Z,34.93
2023-02-08T04:06:30.984Z,35.13
2023-02-08T04:08:59.151Z,38.17
2023-02-08T04:11:27.229Z,35.70
2023-02-08T04:13:55.355Z,36.30
2023-02-08T04:16:23.477Z,35.27
2023-02-08T04:18:51.574Z,37.30
2023-02-08T04:21:19.653Z,31.10
2023-02-08T04:23:49.167Z,39.53
2023-02-08T04:26:17.240Z,31.30
2023-02-08T04:28:45.336Z,32.83
2023-02-08T04:31:13.509Z,35.10
2023-02-08T04:33:41.691Z,34.43
2023-02-08T04:36:10.735Z,30.30
2023-02-08T04:38:38.914Z,39.17
2023-02-08T04:41:08.567Z,35.37
2023-02-08T04:43:36.838Z,32.10
2023-02-08T04:46:05.352Z,33.57
2023-02-08T04:48:33.552Z,27.97
2023-02-08T04:51:01.785Z,35.80
2023-02-08T04:53:29.998Z,29.77
2023-02-08T04:55:58.122Z,29.43
2023-02-08T04:58:27.619Z,28.13
2023-02-08T05:00:55.788Z,26.40
2023-02-08T05:03:24.110Z,32.53
2023-02-08T05:05:58.734Z,32.30
2023-02-08T05:08:27.584Z,29.23
2023-02-08T05:10:56.128Z,27.27
2023-02-08T05:13:24.315Z,29.17
2023-02-08T05:15:54.183Z,31.27
2023-02-08T05:18:22.428Z,31.20
2023-02-08T05:20:56.143Z,34.27
2023-02-08T05:23:24.301Z,31.53
2023-02-08T05:25:52.816Z,33.67
2023-02-08T05:28:21.184Z,36.10
2023-02-08T05:30:49.518Z,37.40
2023-02-08T05:33:19.685Z,33.97
2023-02-08T05:35:47.815Z,35.43
2023-02-08T05:38:16.138Z,29.10
2023-02-08T05:40:44.233Z,35.17
2023-02-08T05:43:12.367Z,33.07
2023-02-08T05:45:40.494Z,27.57
2023-02-08T05:48:08.710Z,29.80
2023-02-08T05:50:38.329Z,29.63
2023-02-08T05:53:06.573Z,30.40
2023-02-08T05:55:34.788Z,29.43
2023-02-08T05:58:02.993Z,31.87
2023-02-08T06:00:31.096Z,34.63
2023-02-08T06:02:59.681Z,23.60
2023-02-08T06:05:27.772Z,33.60
2023-02-08T06:07:57.499Z,26.90
2023-02-08T06:10:25.686Z,30.90
2023-02-08T06:12:53.903Z,29.10
2023-02-08T06:15:22.064Z,31.60
2023-02-08T06:17:50.259Z,27.37
2023-02-08T06:20:18.829Z,26.17
2023-02-08T06:22:46.980Z,28.20
2023-02-08T06:25:16.676Z,28.20
2023-02-08T06:27:44.806Z,26.73
2023-02-08T06:30:13.615Z,30.70
2023-02-08T06:32:41.741Z,26.37
2023-02-08T06:35:10.313Z,23.93
2023-02-08T06:37:38.848Z,26.40
2023-02-08T06:40:07.943Z,29.80
2023-02-08T06:42:37.521Z,27.63
2023-02-08T06:45:08.375Z,34.20
2023-02-08T06:47:36.772Z,26.07
2023-02-08T06:50:05.233Z,44.93
2023-02-08T06:52:33.362Z,46.90
2023-02-08T06:55:01.530Z,61.37
2023-02-08T06:57:29.727Z,56.23
2023-02-08T06:59:59.220Z,59.63
2023-02-08T07:02:27.813Z,49.33
2023-02-08T07:04:55.986Z,55.23
2023-02-08T07:07:24.159Z,39.73
2023-02-08T07:09:52.315Z,42.63
2023-02-08T07:12:20.416Z,42.80
2023-02-08T07:14:48.537Z,34.97
2023-02-08T07:17:18.064Z,32.13
2023-02-08T07:19:46.205Z,31.67
2023-02-08T07:22:14.318Z,32.87
2023-02-08T07:24:43.024Z,25.00
2023-02-08T07:27:13.148Z,32.70
2023-02-08T07:29:41.593Z,25.03
2023-02-08T07:32:11.604Z,26.63
2023-02-08T07:34:41.537Z,28.80
2023-02-08T07:37:09.682Z,40.10
2023-02-08T07:39:37.898Z,43.30
2023-02-08T07:42:07.412Z,41.47
2023-02-08T07:44:42.544Z,44.17
2023-02-08T07:47:10.913Z,37.43
2023-02-08T07:49:39.049Z,30.30
2023-02-08T07:52:08.607Z,32.70
2023-02-08T07:54:36.733Z,25.50
2023-02-08T07:57:05.062Z,23.13
2023-02-08T07:59:33.234Z,25.10
2023-02-08T08:02:01.419Z,21.97
2023-02-08T08:04:29.570Z,33.27
2023-02-08T08:06:57.708Z,55.23
2023-02-08T08:09:27.321Z,62.77
2023-02-08T08:11:55.470Z,25.87
2023-02-08T08:14:23.662Z,24.97
2023-02-08T08:16:51.804Z,23.57
2023-02-08T08:19:19.951Z,30.00
2023-02-08T08:21:48.064Z,30.87
2023-02-08T08:24:16.216Z,24.67
2023-02-08T08:26:45.737Z,21.30
2023-02-08T08:29:14.400Z,30.83
2023-02-08T08:31:44.380Z,27.13
2023-02-08T08:34:12.605Z,21.10
2023-02-08T08:36:40.749Z,27.53
2023-02-08T08:39:08.968Z,19.77
2023-02-08T08:41:37.356Z,22.17
2023-02-08T08:44:07.251Z,23.97
2023-02-08T08:46:35.462Z,22.77
2023-02-08T08:49:03.619Z,25.87
2023-02-08T08:51:35.291Z,21.23
2023-02-08T08:54:03.697Z,23.67
2023-02-08T08:56:31.845Z,20.60
2023-02-08T08:59:00.577Z,22.77
2023-02-08T09:01:31.425Z,17.87
2023-02-08T09:04:00.492Z,21.93
2023-02-08T09:06:28.721Z,17.13
2023-02-08T09:08:56.853Z,15.43
2023-02-08T09:11:25.191Z,17.40
2023-02-08T09:13:56.163Z,13.57
2023-02-08T09:16:25.722Z,17.27
2023-02-08T09:18:55.352Z,18.33
2023-02-08T09:21:25.924Z,15.37
2023-02-08T09:23:54.119Z,18.27
2023-02-08T09:26:22.972Z,13.63
2023-02-08T09:28:51.089Z,15.63
2023-02-08T09:31:21.845Z,15.07
2023-02-08T09:33:51.166Z,14.70
2023-02-08T09:36:21.604Z,11.67
2023-02-08T09:38:50.873Z,14.83
2023-02-08T09:41:34.246Z,19.67
2023-02-08T09:44:16.974Z,18.70
2023-02-08T09:46:53.410Z,16.30
2023-02-08T09:49:27.683Z,13.83
2023-02-08T09:52:01.807Z,17.87
2023-02-08T09:54:34.534Z,15.23
2023-02-08T09:57:07.221Z,18.00
2023-02-08T09:59:36.592Z,16.43
2023-02-08T10:02:18.728Z,14.53
2023-02-08T10:04:58.052Z,17.67
2023-02-08T10:07:28.770Z,16.97
2023-02-08T10:10:00.417Z,19.50
2023-02-08T10:12:39.269Z,16.27
2023-02-08T10:15:22.323Z,18.20
2023-02-08T10:18:02.307Z,17.10
2023-02-08T10:20:41.700Z,15.03
2023-02-08T10:23:24.731Z,15.37
2023-02-08T10:26:07.883Z,14.63
2023-02-08T10:28:50.854Z,14.70
2023-02-08T10:31:30.697Z,17.27
2023-02-08T10:34:03.639Z,16.40
2023-02-08T10:36:36.412Z,17.90
2023-02-08T10:39:16.202Z,16.70
2023-02-08T10:41:45.825Z,17.50
2023-02-08T10:44:28.162Z,18.77
2023-02-08T10:47:10.015Z,15.43
2023-02-08T10:49:44.129Z,14.63
2023-02-08T10:52:12.439Z,15.03
2023-02-08T10:54:42.073Z,12.13
2023-02-08T10:57:16.877Z,16.30
2023-02-08T10:59:50.967Z,19.80
2023-02-08T11:02:23.878Z,15.77
2023-02-08T11:05:00.186Z,20.07
2023-02-08T11:07:28.489Z,15.23
2023-02-08T11:10:15.935Z,16.90
2023-02-08T11:12:54.755Z,16.03
2023-02-08T11:15:26.347Z,16.70
2023-02-08T11:17:58.121Z,15.67
2023-02-08T11:20:32.585Z,15.10
2023-02-08T11:23:01.048Z,13.20
2023-02-08T11:25:37.239Z,13.60
2023-02-08T11:28:06.671Z,18.90
2023-02-08T11:30:34.890Z,14.67
2023-02-08T11:33:19.598Z,14.73
2023-02-08T11:36:08.392Z,13.27
2023-02-08T11:38:38.054Z,18.80
2023-02-08T11:41:19.002Z,11.37
2023-02-08T11:43:58.463Z,13.97
2023-02-08T11:46:28.875Z,13.17
2023-02-08T11:48:57.722Z,13.10
2023-02-08T11:51:30.499Z,10.63
2023-02-08T11:54:01.669Z,11.13
2023-02-08T11:56:33.326Z,13.77
2023-02-08T11:59:18.315Z,14.07
2023-02-08T12:01:46.769Z,13.13
2023-02-08T12:04:17.422Z,10.83
2023-02-08T12:07:10.240Z,10.93
2023-02-08T12:10:12.036Z,12.23
2023-02-08T12:12:58.246Z,11.63
2023-02-08T12:15:51.342Z,10.00
2023-02-08T12:18:45.551Z,10.20
2023-02-08T12:21:19.251Z,11.33
2023-02-08T12:23:54.316Z,8.87
2023-02-08T12:26:35.469Z,8.73
2023-02-08T12:29:38.432Z,13.33
2023-02-08T12:32:32.862Z,9.23
2023-02-08T12:35:43.295Z,7.50
2023-02-08T12:38:44.787Z,9.23
2023-02-08T12:41:22.634Z,9.33
2023-02-08T12:44:02.348Z,13.17
2023-02-08T12:47:00.846Z,13.03
2023-02-08T12:49:46.907Z,13.70
2023-02-08T12:52:26.280Z,12.77
2023-02-08T12:54:58.972Z,11.70
2023-02-08T12:57:31.897Z,10.23
2023-02-08T13:00:04.340Z,9.50
2023-02-08T13:02:44.791Z,8.90
2023-02-08T13:05:18.887Z,9.47
2023-02-08T13:07:50.522Z,10.63
2023-02-08T13:10:27.936Z,11.20
2023-02-08T13:12:59.372Z,12.17
2023-02-08T13:15:36.892Z,13.03
2023-02-08T13:18:15.733Z,17.77
2023-02-08T13:20:47.191Z,12.50
2023-02-08T13:23:22.285Z,10.63
2023-02-08T13:25:53.415Z,13.23
2023-02-08T13:28:24.050Z,12.60
2023-02-08T13:30:59.875Z,12.30
2023-02-08T13:33:36.912Z,13.20
2023-02-08T13:36:06.347Z,14.77
2023-02-08T13:38:37.486Z,11.53
2023-02-08T13:41:09.620Z,9.67
2023-02-08T13:43:42.962Z,13.87
2023-02-08T13:46:12.614Z,12.60
2023-02-08T13:48:50.895Z,11.17
2023-02-08T13:52:02.324Z,10.27
2023-02-08T13:54:30.665Z,11.20
2023-02-08T13:56:58.918Z,13.63
2023-02-08T13:59:34.213Z,15.07
2023-02-08T14:02:27.059Z,12.03
2023-02-08T14:05:20.588Z,12.07
2023-02-08T14:07:49.995Z,14.77
2023-02-08T14:10:37.540Z,14.60
2023-02-08T14:13:18.538Z,14.10
2023-02-08T14:15:47.898Z,13.40
2023-02-08T14:18:25.574Z,13.60
2023-02-08T14:21:03.238Z,11.20
2023-02-08T14:23:33.642Z,12.67
2023-02-08T14:26:10.643Z,11.63
2023-02-08T14:28:44.001Z,12.70
2023-02-08T14:31:14.187Z,12.23
2023-02-08T14:33:45.051Z,10.47
2023-02-08T14:36:28.866Z,12.67
2023-02-08T14:39:24.518Z,11.03
2023-02-08T14:41:57.299Z,13.23
2023-02-08T14:45:03.605Z,14.47
2023-02-08T14:48:17.702Z,10.83
2023-02-08T14:51:16.626Z,12.20
2023-02-08T14:53:50.766Z,12.80
2023-02-08T14:56:23.785Z,13.77
2023-02-08T14:58:56.431Z,11.37
2023-02-08T15:01:34.848Z,11.33
2023-02-08T15:04:04.077Z,15.13
2023-02-08T15:06:59.714Z,12.77
2023-02-08T15:09:33.602Z,17.83
2023-02-08T15:12:05.255Z,15.37
2023-02-08T15:14:36.878Z,13.57
2023-02-08T15:17:05.293Z,13.97
2023-02-08T15:19:37.867Z,14.77
2023-02-08T15:22:20.497Z,10.50
2023-02-08T15:24:55.182Z,13.30
2023-02-08T15:27:25.324Z,10.40
2023-02-08T15:29:53.845Z,12.53
2023-02-08T15:32:26.649Z,11.53
2023-02-08T15:34:56.726Z,12.50
2023-02-08T15:37:25.824Z,11.67
2023-02-08T15:39:58.038Z,18.87
2023-02-08T15:42:28.937Z,12.97
2023-02-08T15:44:57.689Z,12.00
2023-02-08T15:47:29.763Z,16.57
2023-02-08T15:49:59.744Z,15.70
2023-02-08T15:52:36.257Z,13.97
2023-02-08T15:55:08.157Z,12.13
2023-02-08T15:57:40.651Z,12.40
2023-02-08T16:00:16.849Z,12.10
2023-02-08T16:02:46.046Z,11.03
2023-02-08T16:05:22.000Z,12.10
2023-02-08T16:07:51.870Z,13.30
2023-02-08T16:10:31.407Z,15.40
2023-02-08T16:13:02.189Z,12.23
2023-02-08T16:15:38.832Z,13.23
2023-02-08T16:18:07.761Z,9.93
2023-02-08T16:20:37.270Z,13.67
2023-02-08T16:23:24.743Z,14.83
2023-02-08T16:25:54.623Z,13.50
2023-02-08T16:28:28.052Z,11.97
2023-02-08T16:30:58.111Z,12.43
2023-02-08T16:33:27.094Z,13.30
2023-02-08T16:36:01.916Z,14.63
2023-02-08T16:38:32.199Z,13.67
2023-02-08T16:41:13.163Z,13.60
2023-02-08T16:43:44.065Z,18.37
2023-02-08T16:46:25.513Z,16.40
2023-02-08T16:48:55.733Z,16.70
2023-02-08T16:51:26.799Z,18.80
2023-02-08T16:53:57.662Z,18.50
2023-02-08T16:56:27.975Z,19.93
2023-02-08T16:58:56.574Z,18.87
2023-02-08T17:01:25.564Z,19.60
2023-02-08T17:03:54.844Z,17.83
2023-02-08T17:06:30.048Z,19.30
2023-02-08T17:08:59.191Z,16.10
2023-02-08T17:11:30.706Z,22.80
2023-02-08T17:14:00.751Z,22.60
2023-02-08T17:16:32.515Z,22.40
2023-02-08T17:19:01.916Z,24.30
2023-02-08T17:21:31.345Z,18.47
2023-02-08T17:24:00.251Z,20.87
2023-02-08T17:26:33.217Z,18.03
2023-02-08T17:29:02.157Z,19.47
2023-02-08T17:31:31.254Z,19.43
2023-02-08T17:34:05.161Z,23.80
2023-02-08T17:36:35.652Z,26.47
2023-02-08T17:39:08.463Z,20.73
2023-02-08T17:41:41.002Z,22.63
2023-02-08T17:44:11.026Z,25.40
2023-02-08T17:46:40.028Z,25.00
2023-02-08T17:49:09.326Z,23.10
2023-02-08T17:51:38.124Z,23.87
2023-02-08T17:54:07.012Z,17.77
2023-02-08T17:56:37.390Z,18.10
2023-02-08T17:59:08.177Z,25.27
2023-02-08T18:01:37.347Z,31.87
2023-02-08T18:04:09.587Z,28.20
2023-02-08T18:06:39.109Z,22.70
2023-02-08T18:09:08.318Z,20.97
2023-02-08T18:11:36.797Z,23.97
2023-02-08T18:14:07.167Z,24.77
2023-02-08T18:16:37.029Z,24.27
2023-02-08T18:19:07.595Z,23.80
2023-02-08T18:21:36.935Z,25.33
2023-02-08T18:24:07.944Z,24.17
2023-02-08T18:26:37.897Z,25.30
2023-02-08T18:29:10.366Z,23.27
2023-02-08T18:31:41.138Z,25.57
2023-02-08T18:34:10.059Z,26.20
2023-02-08T18:36:39.518Z,25.00
2023-02-08T18:39:09.003Z,22.47
2023-02-08T18:41:38.545Z,20.37
2023-02-08T18:44:12.536Z,20.50
2023-02-08T18:46:42.027Z,21.00
2023-02-08T18:49:13.533Z,22.20
2023-02-08T18:51:44.939Z,26.27
2023-02-08T18:54:15.742Z,24.27
2023-02-08T18:56:47.128Z,23.53
2023-02-08T18:59:20.684Z,27.63
2023-02-08T19:01:50.130Z,22.80
2023-02-08T19:04:22.021Z,25.43
2023-02-08T19:06:51.756Z,22.07
2023-02-08T19:09:21.784Z,21.10
2023-02-08T19:11:52.314Z,25.03
2023-02-08T19:14:23.419Z,22.30
2023-02-08T19:16:53.267Z,34.83
2023-02-08T19:19:23.649Z,29.73
2023-02-08T19:21:53.157Z,25.60
2023-02-08T19:24:22.504Z,25.27
2023-02-08T19:26:53.563Z,28.60
2023-02-08T19:29:24.941Z,40.63
2023-02-08T19:31:57.843Z,31.30
2023-02-08T19:34:30.320Z,36.57
2023-02-08T19:37:00.108Z,26.80
2023-02-08T19:39:29.795Z,22.30
2023-02-08T19:42:00.363Z,24.53
2023-02-08T19:44:32.076Z,27.90
2023-02-08T19:47:01.896Z,23.47
2023-02-08T19:49:32.841Z,25.67
2023-02-08T19:52:05.415Z,25.47
2023-02-08T19:54:35.045Z,22.80
2023-02-08T19:57:04.931Z,22.70
2023-02-08T19:59:40.062Z,26.37
2023-02-08T20:02:15.840Z,23.97
2023-02-08T20:04:47.111Z,27.23
2023-02-08T20:07:16.853Z,23.27
2023-02-08T20:09:46.995Z,19.20
2023-02-08T20:12:16.832Z,19.83
2023-02-08T20:14:48.576Z,25.67
2023-02-08T20:17:18.691Z,23.40
2023-02-08T20:19:47.818Z,28.97
2023-02-08T20:22:21.071Z,34.80
2023-02-08T20:24:50.353Z,39.20
2023-02-08T20:27:26.080Z,38.03
2023-02-08T20:29:59.892Z,27.10
2023-02-08T20:32:32.152Z,34.27
2023-02-08T20:35:01.146Z,34.43
2023-02-08T20:37:31.465Z,36.23
2023-02-08T20:40:01.647Z,33.73
2023-02-08T20:42:31.453Z,29.23
2023-02-08T20:45:04.810Z,26.27
2023-02-08T20:47:45.993Z,26.97
2023-02-08T20:50:19.601Z,31.13
2023-02-08T20:52:49.968Z,40.00
2023-02-08T20:55:19.878Z,34.00
2023-02-08T20:57:49.014Z,27.80
2023-02-08T21:00:24.205Z,28.33
2023-02-08T21:02:56.886Z,24.20
2023-02-08T21:05:26.493Z,24.07
2023-02-08T21:07:55.868Z,22.53
2023-02-08T21:10:25.240Z,25.20
2023-02-08T21:12:55.176Z,33.90
2023-02-08T21:15:25.921Z,35.30
2023-02-08T21:17:54.470Z,31.23
2023-02-08T21:20:22.947Z,27.87
2023-02-08T21:22:52.040Z,21.10
2023-02-08T21:25:20.645Z,29.57
2023-02-08T21:27:48.803Z,22.60
2023-02-08T21:30:19.846Z,24.17
2023-02-08T21:32:50.614Z,25.53
2023-02-08T21:35:18.894Z,29.20
2023-02-08T21:37:47.069Z,28.83
2023-02-08T21:40:15.304Z,27.23
2023-02-08T21:42:43.531Z,26.97
2023-02-08T21:45:12.336Z,23.27
2023-02-08T21:47:41.798Z,23.40
2023-02-08T21:50:29.038Z,28.00
2023-02-08T21:53:14.350Z,20.23
2023-02-08T21:55:46.560Z,20.63
2023-02-08T21:58:15.140Z,29.63
2023-02-08T22:00:43.546Z,25.30
2023-02-08T22:03:11.821Z,28.87
2023-02-08T22:05:58.812Z,29.33
2023-02-08T22:08:27.047Z,27.70
2023-02-08T22:10:58.296Z,28.70
2023-02-08T22:13:26.925Z,32.70
2023-02-08T22:15:55.119Z,25.97
2023-02-08T22:18:23.323Z,24.83
2023-02-08T22:20:54.304Z,27.43
2023-02-08T22:23:22.605Z,26.20
2023-02-08T22:25:50.696Z,25.37
2023-02-08T22:28:18.834Z,30.63
2023-02-08T22:30:49.220Z,32.53
2023-02-08T22:33:17.594Z,24.67
2023-02-08T22:35:45.690Z,25.50
2023-02-08T22:38:15.211Z,24.90
2023-02-08T22:40:43.709Z,24.30
2023-02-08T22:43:12.066Z,19.60
2023-02-08T22:45:40.195Z,27.07
2023-02-08T22:48:08.299Z,21.43
2023-02-08T22:50:38.256Z,19.23
2023-02-08T22:53:06.355Z,22.17
2023-02-08T22:55:35.887Z,22.60
2023-02-08T22:58:04.015Z,22.20
2023-02-08T23:00:32.192Z,18.70
2023-02-08T23:03:00.375Z,21.73
2023-02-08T23:05:28.581Z,19.57
2023-02-08T23:07:56.692Z,19.93
2023-02-08T23:10:24.754Z,22.50
2023-02-08T23:12:54.279Z,28.53
2023-02-08T23:15:22.617Z,20.47
2023-02-08T23:17:50.791Z,19.20
2023-02-08T23:20:19.286Z,19.93
2023-02-08T23:22:47.436Z,25.07
2023-02-08T23:25:15.892Z,21.83
2023-02-08T23:27:44.074Z,19.77
2023-02-08T23:30:14.365Z,19.57
2023-02-08T23:32:42.692Z,17.00
2023-02-08T23:35:11.477Z,18.30
2023-02-08T23:37:39.922Z,18.87
2023-02-08T23:40:09.297Z,19.03
2023-02-08T23:42:37.431Z,21.13
2023-02-08T23:45:06.493Z,20.03
2023-02-08T23:47:36.556Z,19.53
2023-02-08T23:50:04.849Z,19.63
2023-02-08T23:52:33.171Z,20.23
2023-02-08T23:55:01.295Z,17.27
2023-02-08T23:57:33.765Z,19.87
